Time;durP1;ratioP1;P1;durP2;ratioP2;P2;SDS_P1;SDS_P2;PMS_P1;PMS_P2;Temp;Humidity;BMP_temperature;BMP_pressure;BME280_temperature;BME280_humidity;BME280_pressure;Samples;Min_cycle;Max_cycle;Signal;HPM_P1;HPM_P2
2023/09/02 00:01:49;;;;;;;;;2.00;2.00;;;;;23.47;45.38;100902.29;110042;1266;22899;-37
2023/09/02 00:04:17;;;;;;;;;1.00;1.00;;;;;23.48;45.44;100900.48;110022;1266;19383;-37
2023/09/02 00:06:44;;;;;;;;;2.00;2.00;;;;;23.47;45.42;100902.71;110028;1266;18643;-36
2023/09/02 00:09:12;;;;;;;;;2.00;2.00;;;;;23.50;45.50;100905.70;110022;1253;20005;-38
2023/09/02 00:11:40;;;;;;;;;1.00;1.00;;;;;23.50;45.33;100907.84;110060;1251;21721;-37
2023/09/02 00:14:07;;;;;;;;;1.00;1.00;;;;;23.50;45.33;100905.33;110046;1251;22063;-37
2023/09/02 00:16:34;;;;;;;;;1.00;1.00;;;;;23.50;45.50;100907.73;110019;1251;19965;-36
2023/09/02 00:19:03;;;;;;;;;7.00;7.00;;;;;23.51;45.31;100906.90;110041;1266;19381;-36
2023/09/02 00:21:30;;;;;;;;;4.00;4.00;;;;;23.51;45.53;100909.80;110034;1253;19692;-35
2023/09/02 00:23:58;;;;;;;;;5.00;5.00;;;;;23.49;45.31;100909.93;110035;1251;21187;-36
2023/09/02 00:26:25;;;;;;;;;5.00;4.33;;;;;23.49;45.53;100913.86;110019;1260;20844;-36
2023/09/02 00:28:53;;;;;;;;;5.00;5.00;;;;;23.51;45.47;100917.58;109896;1266;158717;-37
2023/09/02 00:31:20;;;;;;;;;4.00;4.00;;;;;23.49;45.51;100917.30;110023;1251;21335;-37
2023/09/02 00:33:47;;;;;;;;;4.50;4.50;;;;;23.50;45.43;100917.69;110023;1266;19680;-36
2023/09/02 00:36:15;;;;;;;;;1.50;1.50;;;;;23.52;45.32;100912.86;110013;1266;21518;-37
2023/09/02 00:38:42;;;;;;;;;3.00;3.00;;;;;23.51;45.63;100915.77;110019;1251;22816;-37
2023/09/02 00:41:09;;;;;;;;;5.00;5.00;;;;;23.49;45.67;100914.35;110027;1266;19754;-37
2023/09/02 00:43:37;;;;;;;;;4.50;4.50;;;;;23.48;45.63;100916.00;110001;1251;23784;-37
2023/09/02 00:46:04;;;;;;;;;5.00;5.00;;;;;23.47;45.34;100918.36;110016;1251;20213;-37
2023/09/02 00:48:32;;;;;;;;;5.00;5.00;;;;;23.48;45.62;100917.76;110030;1253;20794;-37
2023/09/02 00:50:59;;;;;;;;;4.00;4.00;;;;;23.48;45.53;100918.80;110027;1260;19539;-37
2023/09/02 00:53:27;;;;;;;;;5.00;5.00;;;;;23.50;45.35;100920.14;109984;1253;20097;-36
2023/09/02 00:55:54;;;;;;;;;2.00;2.00;;;;;23.48;45.53;100914.52;110002;1261;20721;-36
2023/09/02 00:58:21;;;;;;;;;5.00;5.00;;;;;23.49;45.66;100917.04;109904;1253;18504;-36
2023/09/02 01:00:49;;;;;;;;;2.00;2.00;;;;;23.49;45.60;100919.81;110018;1251;22854;-36
2023/09/02 01:03:16;;;;;;;;;1.00;1.00;;;;;23.50;45.59;100922.11;110020;1251;20803;-36
2023/09/02 01:05:43;;;;;;;;;1.50;1.50;;;;;23.48;45.46;100922.35;110026;1266;18755;-38
2023/09/02 01:08:11;;;;;;;;;1.00;1.00;;;;;23.47;45.65;100925.08;110017;1251;20412;-36
2023/09/02 01:10:39;;;;;;;;;4.00;4.00;;;;;23.46;45.55;100925.31;110009;1266;19330;-37
2023/09/02 01:13:06;;;;;;;;;2.00;2.00;;;;;23.47;45.53;100923.50;110023;1251;19497;-37
2023/09/02 01:15:33;;;;;;;;;3.33;3.33;;;;;23.47;45.78;100928.10;110033;1251;20109;-37
2023/09/02 01:18:01;;;;;;;;;4.00;2.00;;;;;23.46;45.90;100926.30;110032;1250;21485;-36
2023/09/02 01:20:28;;;;;;;;;1.00;1.00;;;;;23.47;45.56;100925.52;110039;1251;19633;-37
2023/09/02 01:22:55;;;;;;;;;1.67;1.67;;;;;23.46;45.67;100924.81;110018;1251;20022;-36
2023/09/02 01:25:23;;;;;;;;;2.00;2.00;;;;;23.47;45.76;100928.91;110047;1266;19520;-36
2023/09/02 01:27:50;;;;;;;;;1.50;1.50;;;;;23.47;45.96;100929.68;110064;1253;19694;-37
2023/09/02 01:30:19;;;;;;;;;2.00;2.00;;;;;23.46;45.65;100934.44;110037;1261;21350;-37
2023/09/02 01:32:46;;;;;;;;;1.00;1.00;;;;;23.47;45.71;100932.02;110027;1251;20793;-36
2023/09/02 01:35:14;;;;;;;;;2.00;2.00;;;;;23.48;45.95;100931.20;110051;1253;19662;-36
2023/09/02 01:37:42;;;;;;;;;1.00;1.00;;;;;23.47;45.96;100927.92;109948;1251;21515;-36
2023/09/02 01:40:10;;;;;;;;;2.00;2.00;;;;;23.46;45.85;100932.03;109978;1260;20810;-36
2023/09/02 01:42:37;;;;;;;;;1.50;1.50;;;;;23.48;45.66;100933.72;110082;1253;19738;-36
2023/09/02 01:45:05;;;;;;;;;2.00;2.00;;;;;23.47;46.01;100936.07;110038;1266;18625;-37
2023/09/02 01:47:32;;;;;;;;;1.00;1.00;;;;;23.47;45.79;100935.14;110027;1253;20996;-36
2023/09/02 01:49:59;;;;;;;;;4.00;3.33;;;;;23.48;45.90;100938.31;110005;1253;22681;-36
2023/09/02 01:52:27;;;;;;;;;2.00;1.00;;;;;23.47;45.91;100938.16;110025;1266;20045;-36
2023/09/02 01:54:55;;;;;;;;;2.67;2.00;;;;;23.48;45.89;100938.21;110005;1250;20987;-36
2023/09/02 01:57:22;;;;;;;;;2.00;2.00;;;;;23.47;45.80;100943.56;110049;1253;20824;-37
2023/09/02 01:59:49;;;;;;;;;5.00;5.00;;;;;23.47;46.02;100943.84;110026;1266;18628;-36
2023/09/02 02:02:17;;;;;;;;;3.33;3.33;;;;;23.46;46.03;100947.34;110022;1259;20684;-37
2023/09/02 02:04:44;;;;;;;;;1.50;1.50;;;;;23.48;46.04;100947.88;110036;1253;19634;-36
2023/09/02 02:07:11;;;;;;;;;2.00;2.00;;;;;23.48;46.03;100948.54;110039;1266;18705;-36
2023/09/02 02:09:38;;;;;;;;;1.50;1.50;;;;;23.49;45.91;100950.12;109989;1253;20793;-37
2023/09/02 02:12:06;;;;;;;;;2.00;2.00;;;;;23.48;45.90;100954.34;110031;1252;19707;-36
2023/09/02 02:14:33;;;;;;;;;2.00;2.00;;;;;23.49;45.87;100949.35;110021;1253;20042;-36
2023/09/02 02:17:00;;;;;;;;;1.00;1.00;;;;;23.50;45.94;100952.90;110029;1266;19353;-36
2023/09/02 02:19:28;;;;;;;;;1.00;1.00;;;;;23.48;45.84;100955.75;110016;1251;22818;-36
2023/09/02 02:21:55;;;;;;;;;2.00;2.00;;;;;23.49;45.93;100952.68;110026;1253;20166;-36
2023/09/02 02:24:22;;;;;;;;;2.00;2.00;;;;;23.47;45.84;100952.96;110022;1253;19348;-36
2023/09/02 02:26:50;;;;;;;;;4.50;4.50;;;;;23.48;45.93;100957.61;110002;1259;23984;-36
2023/09/02 02:29:17;;;;;;;;;5.00;5.00;;;;;23.48;45.84;100958.71;110046;1250;22133;-37
2023/09/02 02:31:44;;;;;;;;;5.00;5.00;;;;;23.50;45.99;100963.40;110029;1266;19318;-36
2023/09/02 02:34:12;;;;;;;;;5.00;5.00;;;;;23.50;45.82;100963.35;110021;1250;19665;-36
2023/09/02 02:36:39;;;;;;;;;5.00;5.00;;;;;23.49;45.99;100960.45;110010;1266;18638;-37
2023/09/02 02:39:06;;;;;;;;;2.00;2.00;;;;;23.50;46.02;100962.25;110044;1266;22082;-37
2023/09/02 02:41:34;;;;;;;;;4.00;4.00;;;;;23.49;45.99;100961.88;110017;1266;19565;-36
2023/09/02 02:44:01;;;;;;;;;1.00;1.00;;;;;23.49;46.03;100963.84;110032;1251;21222;-36
2023/09/02 02:46:28;;;;;;;;;2.00;2.00;;;;;23.50;45.90;100959.67;110021;1261;20733;-36
2023/09/02 02:48:56;;;;;;;;;2.00;2.00;;;;;23.51;46.04;100958.85;110032;1250;19664;-36
2023/09/02 02:51:23;;;;;;;;;4.50;4.50;;;;;23.51;46.08;100955.08;110008;1251;18605;-37
2023/09/02 02:53:51;;;;;;;;;4.00;4.00;;;;;23.50;45.87;100954.55;109933;1251;19367;-36
2023/09/02 02:56:18;;;;;;;;;2.00;2.00;;;;;23.50;45.94;100960.99;109962;1266;18385;-36
2023/09/02 02:58:45;;;;;;;;;5.00;5.00;;;;;23.50;45.83;100965.86;110053;1253;20083;-36
2023/09/02 03:01:13;;;;;;;;;4.00;4.00;;;;;23.51;45.91;100963.83;110033;1260;20655;-36
2023/09/02 03:03:41;;;;;;;;;5.00;5.00;;;;;23.50;45.89;100961.76;109985;1253;22126;-36
2023/09/02 03:06:08;;;;;;;;;2.00;2.00;;;;;23.51;45.97;100955.14;110020;1266;19981;-37
2023/09/02 03:08:36;;;;;;;;;5.00;5.00;;;;;23.50;46.07;100957.21;110026;1251;22092;-36
2023/09/02 03:11:03;;;;;;;;;4.00;4.00;;;;;23.52;46.07;100961.52;110025;1251;19675;-37
2023/09/02 03:13:33;;;;;;;;;4.00;4.00;;;;;23.52;45.80;100965.56;110042;1250;21700;-36
2023/09/02 03:16:01;;;;;;;;;2.00;2.00;;;;;23.53;46.08;100966.39;110003;1266;19349;-37
2023/09/02 03:18:28;;;;;;;;;2.00;2.00;;;;;23.51;46.03;100972.91;110030;1251;22839;-36
2023/09/02 03:20:55;;;;;;;;;4.00;4.00;;;;;23.49;46.10;100977.07;110040;1253;18610;-36
2023/09/02 03:23:23;;;;;;;;;1.00;1.00;;;;;23.49;46.14;100978.27;110034;1250;20793;-36
2023/09/02 03:25:50;;;;;;;;;2.00;2.00;;;;;23.50;46.12;100975.59;110024;1260;19750;-35
2023/09/02 03:28:17;;;;;;;;;2.00;2.00;;;;;23.52;46.13;100980.00;110025;1251;18593;-35
2023/09/02 03:30:45;;;;;;;;;2.00;2.00;;;;;23.53;46.04;100980.72;110022;1264;20800;-36
2023/09/02 03:33:14;;;;;;;;;2.00;2.00;;;;;23.52;45.87;100978.42;110019;1266;18543;-36
2023/09/02 03:35:42;;;;;;;;;2.00;1.50;;;;;23.50;46.37;100983.85;110020;1253;20362;-36
2023/09/02 03:38:09;;;;;;;;;2.00;2.00;;;;;23.50;46.11;100991.12;110031;1258;21386;-36
2023/09/02 03:40:36;;;;;;;;;2.67;2.67;;;;;23.53;46.17;100992.09;109986;1266;18484;-36
2023/09/02 03:43:05;;;;;;;;;2.00;2.00;;;;;23.53;46.09;100996.52;109907;1266;22815;-37
2023/09/02 03:45:32;;;;;;;;;2.00;2.00;;;;;23.51;46.04;100995.27;109909;1260;20887;-36
2023/09/02 03:48:00;;;;;;;;;2.00;2.00;;;;;23.51;46.09;100995.93;109982;1266;18491;-36
2023/09/02 03:50:27;;;;;;;;;2.00;2.00;;;;;23.51;46.03;101002.88;110015;1266;19721;-36
2023/09/02 03:52:54;;;;;;;;;2.00;2.00;;;;;23.51;46.23;101005.65;110034;1266;19392;-37
2023/09/02 03:55:22;;;;;;;;;2.00;2.00;;;;;23.52;46.03;101003.96;109997;1259;23943;-36
2023/09/02 03:57:49;;;;;;;;;2.00;2.00;;;;;23.51;46.46;101000.09;110008;1253;20045;-36
2023/09/02 04:00:17;;;;;;;;;2.00;2.00;;;;;23.51;46.08;100999.48;110036;1266;20754;-36
2023/09/02 04:02:44;;;;;;;;;5.00;4.00;;;;;23.52;46.23;101001.06;110015;1251;19574;-36
2023/09/02 04:05:11;;;;;;;;;2.00;2.00;;;;;23.53;46.31;100997.58;110026;1253;20445;-37
2023/09/02 04:07:39;;;;;;;;;2.67;2.67;;;;;23.52;46.19;101000.25;110011;1251;20787;-36
2023/09/02 04:10:06;;;;;;;;;2.00;2.00;;;;;23.52;46.04;101002.55;110010;1260;19241;-37
2023/09/02 04:12:34;;;;;;;;;2.00;2.00;;;;;23.52;46.11;101007.67;110020;1250;20142;-37
2023/09/02 04:15:01;;;;;;;;;2.00;2.00;;;;;23.53;46.18;101006.65;110032;1266;19273;-36
2023/09/02 04:17:29;;;;;;;;;2.00;2.00;;;;;23.54;46.11;101012.51;110026;1260;19753;-35
2023/09/02 04:19:56;;;;;;;;;2.00;2.00;;;;;23.53;46.03;101014.30;110011;1251;20132;-35
2023/09/02 04:22:23;;;;;;;;;2.00;2.00;;;;;23.53;46.01;101012.60;110039;1266;19460;-36
2023/09/02 04:24:51;;;;;;;;;2.00;2.00;;;;;23.53;46.01;101013.27;110032;1252;19733;-36
2023/09/02 04:27:19;;;;;;;;;2.00;2.00;;;;;23.54;46.11;101014.58;110022;1251;18729;-36
2023/09/02 04:29:46;;;;;;;;;3.00;3.00;;;;;23.55;46.04;101018.95;110014;1251;20805;-36
2023/09/02 04:32:13;;;;;;;;;2.00;2.00;;;;;23.59;46.23;101023.36;110018;1251;20069;-35
2023/09/02 04:34:41;;;;;;;;;4.50;4.50;;;;;23.56;45.98;101027.54;109974;1253;20126;-35
2023/09/02 04:37:09;;;;;;;;;4.00;4.00;;;;;23.59;46.10;101026.38;109938;1266;19800;-35
2023/09/02 04:39:38;;;;;;;;;5.67;5.67;;;;;23.60;45.98;101032.77;109980;1253;19608;-36
2023/09/02 04:42:06;;;;;;;;;5.00;5.00;;;;;23.55;46.34;101029.40;110018;1251;19930;-36
2023/09/02 04:44:33;;;;;;;;;2.00;2.00;;;;;23.58;46.30;101034.25;110039;1251;20590;-36
2023/09/02 04:47:00;;;;;;;;;4.67;4.67;;;;;23.60;46.12;101035.89;110041;1251;19727;-37
2023/09/02 04:49:28;;;;;;;;;5.00;5.00;;;;;23.58;46.05;101040.81;109952;1251;20326;-36
2023/09/02 04:51:55;;;;;;;;;4.00;4.00;;;;;23.63;46.10;101042.05;109916;1253;20718;-36
2023/09/02 04:54:23;;;;;;;;;5.00;5.00;;;;;23.66;46.65;101043.13;110065;1266;22056;-36
2023/09/02 04:56:51;;;;;;;;;4.00;4.00;;;;;23.68;47.87;101047.66;110031;1266;18632;-36
2023/09/02 04:59:18;;;;;;;;;4.00;4.00;;;;;23.67;48.04;101046.13;110024;1266;19371;-36
2023/09/02 05:01:46;;;;;;;;;4.50;4.50;;;;;23.67;47.66;101053.79;109924;1266;18872;-37
2023/09/02 05:04:13;;;;;;;;;5.00;4.00;;;;;23.69;47.85;101059.30;110047;1250;20025;-36
2023/09/02 05:06:40;;;;;;;;;4.00;4.00;;;;;23.68;48.02;101058.87;109998;1251;19387;-36
2023/09/02 05:09:08;;;;;;;;;4.00;4.00;;;;;23.73;48.24;101058.17;110036;1266;20238;-36
2023/09/02 05:11:35;;;;;;;;;6.00;6.00;;;;;23.78;48.09;101055.36;110037;1266;18661;-36
2023/09/02 05:14:02;;;;;;;;;5.00;5.00;;;;;23.83;48.00;101053.58;110032;1253;20807;-36
2023/09/02 05:16:30;;;;;;;;;5.00;4.50;;;;;23.83;48.00;101055.60;110030;1266;18458;-36
2023/09/02 05:18:57;;;;;;;;;5.00;5.00;;;;;23.87;47.66;101057.11;110023;1259;18723;-35
2023/09/02 05:21:24;;;;;;;;;6.00;6.00;;;;;23.85;47.58;101058.22;110024;1253;21002;-36
2023/09/02 05:23:52;;;;;;;;;5.33;5.33;;;;;23.84;47.51;101055.54;110025;1260;18487;-36
2023/09/02 05:26:20;;;;;;;;;6.00;6.00;;;;;23.84;47.66;101057.23;110032;1266;18656;-36
2023/09/02 05:28:47;;;;;;;;;5.00;5.00;;;;;23.84;47.39;101056.20;110030;1265;20603;-37
2023/09/02 05:31:15;;;;;;;;;6.00;6.00;;;;;23.86;47.28;101060.89;110031;1253;20315;-35
2023/09/02 05:33:42;;;;;;;;;4.00;4.00;;;;;23.88;47.60;101068.70;110031;1251;20162;-35
2023/09/02 05:36:09;;;;;;;;;4.33;4.33;;;;;23.95;47.53;101072.70;110004;1251;21082;-36
2023/09/02 05:38:36;;;;;;;;;5.00;5.00;;;;;23.95;48.55;101068.38;110030;1253;19643;-36
2023/09/02 05:41:04;;;;;;;;;6.00;6.00;;;;;23.98;48.64;101069.52;110031;1266;19963;-36
2023/09/02 05:43:31;;;;;;;;;6.00;5.00;;;;;24.05;48.77;101072.48;110012;1251;23443;-36
2023/09/02 05:45:59;;;;;;;;;5.50;5.50;;;;;24.04;49.53;101071.23;110012;1251;19667;-36
2023/09/02 05:48:27;;;;;;;;;5.00;5.00;;;;;24.11;49.73;101075.11;110012;1253;20077;-35
2023/09/02 05:50:54;;;;;;;;;6.00;6.00;;;;;24.15;49.35;101077.60;109988;1258;22007;-35
2023/09/02 05:53:22;;;;;;;;;453.00;453.00;;;;;24.15;49.39;101075.42;109967;1253;19676;-36
2023/09/02 05:55:49;;;;;;;;;5.00;5.00;;;;;24.16;49.43;101076.16;109988;1259;22358;-36
2023/09/02 05:58:16;;;;;;;;;5.00;5.00;;;;;24.19;49.42;101072.54;110054;1266;19542;-36
2023/09/02 06:00:43;;;;;;;;;8.00;6.00;;;;;24.22;49.31;101079.74;110021;1266;18690;-36
2023/09/02 06:03:11;;;;;;;;;8.67;6.00;;;;;24.22;48.76;101083.80;110020;1252;20187;-35
2023/09/02 06:05:38;;;;;;;;;8.00;8.00;;;;;24.21;48.45;101086.59;110035;1266;21152;-35
2023/09/02 06:08:06;;;;;;;;;6.00;6.00;;;;;24.14;48.39;101088.17;110023;1253;21719;-35
2023/09/02 06:10:33;;;;;;;;;6.00;6.00;;;;;24.11;48.13;101094.38;110011;1266;18686;-36
2023/09/02 06:13:00;;;;;;;;;6.00;6.00;;;;;24.10;48.02;101097.45;110034;1250;21962;-36
2023/09/02 06:15:27;;;;;;;;;6.00;6.00;;;;;24.11;47.83;101098.82;110028;1253;19701;-36
2023/09/02 06:17:55;;;;;;;;;8.00;6.00;;;;;24.19;47.44;101102.64;110013;1260;20015;-38
2023/09/02 06:20:22;;;;;;;;;6.00;6.00;;;;;24.15;47.50;101102.56;110008;1253;21981;-38
2023/09/02 06:22:49;;;;;;;;;171.00;132.00;;;;;24.20;47.16;101103.08;110015;1253;19645;-37
2023/09/02 06:25:17;;;;;;;;;431.00;308.00;;;;;24.18;47.43;101105.67;109990;1266;18863;-38
2023/09/02 06:27:45;;;;;;;;;4178.00;4156.00;;;;;24.22;47.26;101101.54;109998;1254;20797;-38
2023/09/02 06:30:12;;;;;;;;;400.67;284.67;;;;;24.30;47.22;101106.27;110006;1260;20231;-38
2023/09/02 06:32:39;;;;;;;;;312.67;222.67;;;;;24.31;46.84;101103.58;110020;1259;20110;-39
2023/09/02 06:35:11;;;;;;;;;258.00;184.00;;;;;24.37;46.67;101099.70;110044;1259;20712;-39
2023/09/02 06:37:39;;;;;;;;;226.00;165.50;;;;;24.34;46.58;101100.98;110067;1251;20438;-39
2023/09/02 06:40:06;;;;;;;;;191.33;145.33;;;;;24.32;46.81;101103.30;110014;1251;18853;-39
2023/09/02 06:42:34;;;;;;;;;168.67;131.67;;;;;24.36;46.62;101105.45;110031;1260;22408;-39
2023/09/02 06:45:01;;;;;;;;;157.00;121.33;;;;;24.41;46.80;101098.52;109996;1251;20360;-39
2023/09/02 06:47:28;;;;;;;;;147.00;104.00;;;;;24.40;46.59;101103.07;109961;1253;21719;-40
2023/09/02 06:49:56;;;;;;;;;135.00;96.00;;;;;24.41;46.69;101103.71;110040;1266;20936;-39
2023/09/02 06:52:23;;;;;;;;;127.50;95.00;;;;;24.42;46.55;101105.80;110024;1266;19811;-38
2023/09/02 06:54:50;;;;;;;;;107.50;83.00;;;;;24.44;46.94;101109.66;110038;1266;18767;-38
2023/09/02 06:57:18;;;;;;;;;95.00;68.00;;;;;24.47;46.93;101111.11;110009;1251;21134;-37
2023/09/02 06:59:45;;;;;;;;;69.00;53.00;;;;;24.45;45.78;101112.98;110041;1251;18980;-37
2023/09/02 07:02:12;;;;;;;;;37.00;34.00;;;;;24.35;44.30;101119.70;110040;1253;20195;-38
2023/09/02 07:04:40;;;;;;;;;27.00;23.00;;;;;24.26;44.03;101122.48;110023;1250;20792;-38
2023/09/02 07:07:07;;;;;;;;;24.33;22.67;;;;;24.19;43.87;101124.16;109986;1266;22249;-37
2023/09/02 07:09:34;;;;;;;;;19.00;16.00;;;;;24.14;43.43;101126.01;110009;1266;18696;-37
2023/09/02 07:12:02;;;;;;;;;18.00;15.00;;;;;24.12;43.28;101127.77;110009;1253;20823;-38
2023/09/02 07:14:29;;;;;;;;;15.50;15.00;;;;;23.90;43.83;101135.23;110031;1250;20022;-38
2023/09/02 07:16:57;;;;;;;;;14.00;12.00;;;;;23.94;43.81;101138.93;110027;1266;20878;-37
2023/09/02 07:19:25;;;;;;;;;11.00;11.00;;;;;23.96;43.86;101146.41;110028;1253;20819;-37
2023/09/02 07:21:52;;;;;;;;;15.00;13.00;;;;;24.01;43.86;101143.87;110021;1266;18599;-38
2023/09/02 07:24:19;;;;;;;;;13.00;11.00;;;;;24.09;44.02;101145.20;110018;1266;22356;-37
2023/09/02 07:26:46;;;;;;;;;12.50;11.50;;;;;24.20;43.97;101150.48;110017;1266;20887;-37
2023/09/02 07:29:14;;;;;;;;;13.00;12.00;;;;;24.27;43.99;101149.16;110014;1266;18566;-37
2023/09/02 07:31:41;;;;;;;;;11.00;11.00;;;;;24.31;44.04;101150.45;110024;1253;20170;-37
2023/09/02 07:34:08;;;;;;;;;12.00;11.00;;;;;24.32;44.20;101152.46;110036;1266;20713;-37
2023/09/02 07:36:36;;;;;;;;;10.50;10.50;;;;;24.38;44.08;101151.83;110046;1253;20136;-37
2023/09/02 07:39:03;;;;;;;;;11.50;10.00;;;;;24.41;43.83;101154.42;110065;1253;21380;-37
2023/09/02 07:41:30;;;;;;;;;11.00;9.00;;;;;24.41;43.82;101157.22;110054;1259;20574;-37
2023/09/02 07:43:58;;;;;;;;;8.00;8.00;;;;;24.44;44.23;101160.05;110033;1266;20038;-37
2023/09/02 07:46:25;;;;;;;;;8.00;8.00;;;;;24.45;43.96;101157.52;110010;1251;22891;-35
2023/09/02 07:48:52;;;;;;;;;7.00;7.00;;;;;24.47;44.00;101159.42;110002;1260;20676;-37
2023/09/02 07:51:20;;;;;;;;;9.00;8.00;;;;;24.49;44.06;101160.22;110020;1266;18520;-38
2023/09/02 07:53:47;;;;;;;;;9.00;9.00;;;;;24.49;43.63;101159.84;110045;1251;20898;-36
2023/09/02 07:56:14;;;;;;;;;9.00;9.00;;;;;24.46;43.75;101164.35;110004;1266;22694;-35
2023/09/02 07:58:43;;;;;;;;;9.00;9.00;;;;;24.38;43.98;101167.42;110020;1251;18448;-37
2023/09/02 08:01:10;;;;;;;;;11.00;9.00;;;;;24.35;44.36;101173.69;109997;1266;18795;-46
2023/09/02 08:03:38;;;;;;;;;11.00;11.00;;;;;24.48;44.24;101178.47;109924;1251;22194;-37
2023/09/02 08:06:05;;;;;;;;;9.00;9.00;;;;;24.51;44.19;101182.39;110015;1266;18583;-36
2023/09/02 08:08:32;;;;;;;;;9.00;9.00;;;;;24.53;43.69;101186.44;110001;1250;22149;-37
2023/09/02 08:11:00;;;;;;;;;7.33;7.33;;;;;24.53;43.65;101192.63;109982;1266;19280;-38
2023/09/02 08:13:27;;;;;;;;;9.00;8.00;;;;;24.44;43.73;101197.67;109980;1253;18587;-37
2023/09/02 08:15:54;;;;;;;;;9.00;8.00;;;;;24.49;43.87;101191.88;110040;1266;20246;-39
2023/09/02 08:18:22;;;;;;;;;8.00;8.00;;;;;24.43;43.77;101194.99;110035;1266;19338;-38
2023/09/02 08:20:49;;;;;;;;;8.00;8.00;;;;;24.41;44.10;101200.55;110001;1266;19403;-38
2023/09/02 08:23:16;;;;;;;;;6.00;6.00;;;;;24.48;43.87;101198.80;109998;1266;19870;-39
2023/09/02 08:25:43;;;;;;;;;9.00;8.00;;;;;24.48;43.94;101196.82;110037;1266;22850;-37
2023/09/02 08:28:11;;;;;;;;;9.00;9.00;;;;;24.48;44.10;101195.67;110011;1266;19579;-37
2023/09/02 08:30:38;;;;;;;;;8.00;6.00;;;;;24.45;44.07;101202.00;110011;1250;22316;-37
2023/09/02 08:33:05;;;;;;;;;8.50;8.00;;;;;24.49;43.65;101199.83;110050;1251;20769;-37
2023/09/02 08:35:33;;;;;;;;;8.00;6.00;;;;;24.55;43.49;101211.79;110014;1260;20170;-37
2023/09/02 08:38:01;;;;;;;;;6.00;5.50;;;;;24.54;43.30;101207.25;110051;1266;18624;-37
2023/09/02 08:40:28;;;;;;;;;6.00;5.00;;;;;24.61;43.12;101204.19;110029;1251;21188;-37
2023/09/02 08:42:55;;;;;;;;;5.67;5.33;;;;;24.59;43.20;101210.11;109893;1259;18487;-37
2023/09/02 08:45:23;;;;;;;;;6.00;6.00;;;;;24.55;43.11;101209.27;109947;1266;22571;-37
2023/09/02 08:47:50;;;;;;;;;5.00;5.00;;;;;24.51;43.15;101212.14;109925;1266;22172;-36
2023/09/02 08:50:19;;;;;;;;;8.00;8.00;;;;;24.50;43.21;101216.46;109982;1251;19868;-37
2023/09/02 08:52:46;;;;;;;;;7.00;7.00;;;;;24.57;42.99;101217.47;110032;1251;22503;-36
2023/09/02 08:55:14;;;;;;;;;6.00;6.00;;;;;24.71;43.02;101219.50;110044;1253;20756;-37
2023/09/02 08:57:41;;;;;;;;;6.00;6.00;;;;;24.71;43.03;101222.74;110035;1266;18492;-37
2023/09/02 09:00:08;;;;;;;;;7.00;7.00;;;;;24.61;42.81;101222.81;110018;1250;20120;-37
2023/09/02 09:02:35;;;;;;;;;6.50;6.00;;;;;24.65;42.82;101219.72;110042;1251;20751;-37
2023/09/02 09:05:03;;;;;;;;;6.00;6.00;;;;;24.74;42.92;101220.84;110022;1253;19656;-36
2023/09/02 09:07:30;;;;;;;;;6.00;6.00;;;;;24.71;43.10;101216.21;110020;1266;18647;-37
2023/09/02 09:09:57;;;;;;;;;5.50;5.50;;;;;24.65;42.99;101224.70;110044;1266;19266;-38
2023/09/02 09:12:25;;;;;;;;;6.00;5.00;;;;;24.63;42.98;101226.30;110025;1259;19463;-37
2023/09/02 09:14:52;;;;;;;;;9.00;6.00;;;;;24.68;42.90;101222.05;110006;1251;20103;-38
2023/09/02 09:17:19;;;;;;;;;5.00;5.00;;;;;24.67;42.86;101228.14;109985;1250;20891;-37
2023/09/02 09:19:47;;;;;;;;;5.00;5.00;;;;;24.62;43.07;101229.11;109998;1251;19714;-37
2023/09/02 09:22:14;;;;;;;;;6.00;6.00;;;;;24.65;42.88;101230.34;110004;1251;20019;-36
2023/09/02 09:24:41;;;;;;;;;4.00;4.00;;;;;24.69;42.61;101232.01;109997;1251;21969;-37
2023/09/02 09:27:10;;;;;;;;;5.00;5.00;;;;;24.72;42.72;101232.70;110001;1260;22197;-37
2023/09/02 09:29:37;;;;;;;;;5.00;5.00;;;;;24.65;42.45;101233.19;110005;1261;19943;-37
2023/09/02 09:32:04;;;;;;;;;5.00;5.00;;;;;24.64;42.44;101230.34;110017;1266;19329;-37
2023/09/02 09:34:32;;;;;;;;;5.00;5.00;;;;;24.63;42.63;101234.95;110015;1253;19772;-37
2023/09/02 09:36:59;;;;;;;;;5.00;5.00;;;;;24.64;42.70;101234.78;110012;1261;20122;-37
2023/09/02 09:39:26;;;;;;;;;6.00;6.00;;;;;24.65;42.21;101230.29;109987;1266;19326;-37
2023/09/02 09:41:54;;;;;;;;;6.00;6.00;;;;;24.65;42.32;101230.39;109958;1251;19655;-37
2023/09/02 09:44:21;;;;;;;;;5.50;5.00;;;;;24.66;42.49;101222.27;110010;1251;21554;-36
2023/09/02 09:46:49;;;;;;;;;5.00;5.00;;;;;24.74;42.43;101222.93;110017;1259;20668;-37
2023/09/02 09:49:16;;;;;;;;;5.00;5.00;;;;;24.80;42.31;101223.81;110010;1251;19180;-38
2023/09/02 09:51:43;;;;;;;;;7.00;7.00;;;;;24.86;42.71;101225.36;109996;1260;22584;-38
2023/09/02 09:54:11;;;;;;;;;5.00;5.00;;;;;24.79;42.19;101232.42;110038;1251;20761;-37
2023/09/02 09:56:38;;;;;;;;;11.00;9.00;;;;;24.76;42.25;101234.37;110052;1266;19540;-37
2023/09/02 09:59:05;;;;;;;;;8.00;8.00;;;;;24.75;41.55;101232.77;110004;1251;20171;-37
2023/09/02 10:01:32;;;;;;;;;8.00;7.00;;;;;24.69;41.59;101233.81;110056;1266;20746;-37
2023/09/02 10:04:00;;;;;;;;;7.00;6.00;;;;;24.71;41.45;101233.96;110045;1266;22319;-36
2023/09/02 10:06:27;;;;;;;;;9.00;9.00;;;;;24.68;41.32;101238.20;110030;1253;20113;-36
2023/09/02 10:08:58;;;;;;;;;8.00;8.00;;;;;24.74;41.20;101240.52;110011;1266;22217;-37
2023/09/02 10:11:26;;;;;;;;;12.00;10.00;;;;;24.77;40.91;101243.02;110000;1266;18173;-36
2023/09/02 10:13:53;;;;;;;;;12.50;11.00;;;;;24.81;40.80;101247.42;110022;1251;18719;-37
2023/09/02 10:16:22;;;;;;;;;9.00;9.00;;;;;24.91;41.04;101247.90;110014;1261;20622;-37
2023/09/02 10:18:49;;;;;;;;;8.50;8.00;;;;;24.85;41.25;101251.45;110013;1253;20041;-38
2023/09/02 10:21:16;;;;;;;;;8.00;6.00;;;;;24.76;41.23;101251.80;110031;1253;20478;-38
2023/09/02 10:23:44;;;;;;;;;7.00;7.00;;;;;24.74;40.98;101249.06;110064;1266;19258;-36
2023/09/02 10:26:11;;;;;;;;;10.00;9.00;;;;;24.71;40.74;101252.11;110043;1251;19652;-37
2023/09/02 10:28:39;;;;;;;;;7.00;7.00;;;;;24.74;40.49;101249.56;110033;1260;18681;-37
2023/09/02 10:31:06;;;;;;;;;8.00;8.00;;;;;24.73;40.37;101246.17;110033;1251;22259;-36
2023/09/02 10:33:33;;;;;;;;;5.50;5.50;;;;;24.73;40.82;101247.92;110011;1260;19672;-37
2023/09/02 10:36:01;;;;;;;;;7.50;6.00;;;;;24.68;40.57;101251.30;110011;1266;19910;-38
2023/09/02 10:38:28;;;;;;;;;7.00;6.00;;;;;24.71;40.08;101252.43;109910;1261;20812;-38
2023/09/02 10:40:56;;;;;;;;;6.33;6.00;;;;;24.69;40.41;101258.80;109984;1266;18328;-36
2023/09/02 10:43:23;;;;;;;;;5.67;5.00;;;;;24.66;40.66;101257.62;110015;1250;20108;-37
2023/09/02 10:45:50;;;;;;;;;6.00;5.33;;;;;24.67;40.71;101255.04;110022;1266;19313;-36
2023/09/02 10:48:17;;;;;;;;;7.00;7.00;;;;;24.72;40.92;101259.55;110007;1266;18374;-37
2023/09/02 10:50:45;;;;;;;;;10.00;9.00;;;;;24.71;40.47;101259.34;109972;1266;18529;-36
2023/09/02 10:53:12;;;;;;;;;8.50;7.50;;;;;24.73;40.30;101256.74;109929;1266;19412;-37
2023/09/02 10:55:40;;;;;;;;;11.00;10.00;;;;;24.75;40.12;101255.98;109942;1250;20082;-37
2023/09/02 10:58:07;;;;;;;;;8.00;8.00;;;;;24.75;40.34;101258.16;109949;1266;18998;-37
2023/09/02 11:00:34;;;;;;;;;9.00;9.00;;;;;24.76;40.45;101261.88;110038;1251;21133;-37
2023/09/02 11:03:02;;;;;;;;;12.50;10.00;;;;;24.80;40.19;101264.04;110001;1253;19630;-38
2023/09/02 11:05:30;;;;;;;;;7.50;6.50;;;;;24.75;39.25;101265.27;110000;1266;22727;-37
2023/09/02 11:07:57;;;;;;;;;9.00;7.00;;;;;24.72;39.17;101259.17;110012;1251;22198;-37
2023/09/02 11:10:25;;;;;;;;;8.50;7.50;;;;;24.74;38.98;101264.47;110001;1251;22221;-37
2023/09/02 11:12:52;;;;;;;;;9.00;9.00;;;;;24.76;39.20;101267.48;110012;1259;18664;-37
2023/09/02 11:15:20;;;;;;;;;8.00;7.00;;;;;24.78;39.08;101266.96;110009;1266;21740;-36